Terminal Aerodrome Forecast
Issued by NWS Tampa Bay Area, FL

Home | Current Version | Previous Version | Text Only | Print | Product List | Glossary On
Versions: 1 2 3 4 5 6 7 8 9 10 11 12
000
FTUS42 KTBW 301100
TAFSRQ
TAF
KSRQ 301120Z 3012/3112 VRB04KT P6SM FEW250
     FM301400 30007KT P6SM FEW025 SCT250
     FM301900 33010KT P6SM SCT030 BKN250
     FM310200 02006KT P6SM SCT250=

USA.gov is the U.S. government's official web portal to all federal, state and local government web resources and services.